sensor_id;sensor_type;location;lat;lon;timestamp;pressure;altitude;pressure_sealevel;temperature;humidity
48156;BME280;35568;48.104;11.782;2022-08-18T00:01:32;95053.55;;;20.59;53.25
48156;BME280;35568;48.104;11.782;2022-08-18T00:03:58;95053.87;;;20.42;53.55
48156;BME280;35568;48.104;11.782;2022-08-18T00:06:26;95056.96;;;20.63;53.66
48156;BME280;35568;48.104;11.782;2022-08-18T00:08:54;95056.44;;;20.55;53.92
48156;BME280;35568;48.104;11.782;2022-08-18T00:11:21;95056.56;;;20.11;54.18
48156;BME280;35568;48.104;11.782;2022-08-18T00:13:48;95051.70;;;20.60;54.06
48156;BME280;35568;48.104;11.782;2022-08-18T00:16:15;95049.02;;;20.74;53.71
48156;BME280;35568;48.104;11.782;2022-08-18T00:18:42;95049.93;;;20.30;53.79
48156;BME280;35568;48.104;11.782;2022-08-18T00:21:09;95044.37;;;20.42;54.02
48156;BME280;35568;48.104;11.782;2022-08-18T00:23:35;95044.79;;;20.06;54.26
48156;BME280;35568;48.104;11.782;2022-08-18T00:26:02;95042.52;;;19.99;54.57
48156;BME280;35568;48.104;11.782;2022-08-18T00:28:29;95043.71;;;20.31;54.45
48156;BME280;35568;48.104;11.782;2022-08-18T00:30:56;95046.65;;;20.10;54.38
48156;BME280;35568;48.104;11.782;2022-08-18T00:33:23;95050.20;;;20.16;54.54
48156;BME280;35568;48.104;11.782;2022-08-18T00:35:49;95053.57;;;20.20;54.59
48156;BME280;35568;48.104;11.782;2022-08-18T00:38:16;95055.08;;;20.27;54.79
48156;BME280;35568;48.104;11.782;2022-08-18T00:40:47;95057.16;;;20.23;54.81
48156;BME280;35568;48.104;11.782;2022-08-18T00:43:18;95067.22;;;20.22;54.84
48156;BME280;35568;48.104;11.782;2022-08-18T00:45:45;95063.36;;;19.97;55.03
48156;BME280;35568;48.104;11.782;2022-08-18T00:48:13;95058.61;;;19.85;54.94
48156;BME280;35568;48.104;11.782;2022-08-18T00:50:44;95054.44;;;20.18;54.62
48156;BME280;35568;48.104;11.782;2022-08-18T00:53:14;95061.09;;;20.16;54.07
48156;BME280;35568;48.104;11.782;2022-08-18T00:55:45;95055.11;;;20.39;53.80
48156;BME280;35568;48.104;11.782;2022-08-18T00:58:17;95053.86;;;20.38;53.80
48156;BME280;35568;48.104;11.782;2022-08-18T01:00:47;95045.31;;;20.07;53.51
48156;BME280;35568;48.104;11.782;2022-08-18T01:03:16;95046.50;;;20.23;53.64
48156;BME280;35568;48.104;11.782;2022-08-18T01:05:47;95052.98;;;20.22;53.69
48156;BME280;35568;48.104;11.782;2022-08-18T01:08:15;95062.64;;;20.33;53.84
48156;BME280;35568;48.104;11.782;2022-08-18T01:10:43;95074.98;;;20.18;54.15
48156;BME280;35568;48.104;11.782;2022-08-18T01:13:10;95088.43;;;20.16;54.14
48156;BME280;35568;48.104;11.782;2022-08-18T01:15:38;95091.97;;;19.98;54.45
48156;BME280;35568;48.104;11.782;2022-08-18T01:18:08;95080.90;;;19.97;54.38
48156;BME280;35568;48.104;11.782;2022-08-18T01:20:42;95077.18;;;19.90;54.40
48156;BME280;35568;48.104;11.782;2022-08-18T01:23:13;95081.71;;;19.95;54.37
48156;BME280;35568;48.104;11.782;2022-08-18T01:25:42;95080.98;;;20.07;54.14
48156;BME280;35568;48.104;11.782;2022-08-18T01:28:10;95078.56;;;20.05;54.08
48156;BME280;35568;48.104;11.782;2022-08-18T01:30:45;95077.82;;;19.97;54.23
48156;BME280;35568;48.104;11.782;2022-08-18T01:33:14;95076.70;;;19.91;54.42
48156;BME280;35568;48.104;11.782;2022-08-18T01:35:42;95077.33;;;19.84;54.53
48156;BME280;35568;48.104;11.782;2022-08-18T01:38:10;95079.12;;;19.72;54.70
48156;BME280;35568;48.104;11.782;2022-08-18T01:40:37;95085.46;;;19.42;54.91
48156;BME280;35568;48.104;11.782;2022-08-18T01:43:04;95085.72;;;19.80;54.26
48156;BME280;35568;48.104;11.782;2022-08-18T01:45:30;95083.94;;;20.01;54.11
48156;BME280;35568;48.104;11.782;2022-08-18T01:47:57;95075.97;;;19.81;54.44
48156;BME280;35568;48.104;11.782;2022-08-18T01:50:24;95063.89;;;20.14;54.46
48156;BME280;35568;48.104;11.782;2022-08-18T01:52:52;95063.51;;;19.89;54.30
48156;BME280;35568;48.104;11.782;2022-08-18T01:55:19;95061.22;;;19.50;54.61
48156;BME280;35568;48.104;11.782;2022-08-18T01:57:45;95053.00;;;19.58;54.83
48156;BME280;35568;48.104;11.782;2022-08-18T02:00:16;95044.14;;;19.60;54.89
48156;BME280;35568;48.104;11.782;2022-08-18T02:02:44;95047.48;;;19.38;55.17
48156;BME280;35568;48.104;11.782;2022-08-18T02:05:13;95046.45;;;19.55;55.40
48156;BME280;35568;48.104;11.782;2022-08-18T02:07:42;95046.46;;;19.59;55.42
48156;BME280;35568;48.104;11.782;2022-08-18T02:10:09;95047.08;;;19.48;55.57
48156;BME280;35568;48.104;11.782;2022-08-18T02:12:36;95052.33;;;19.47;55.43
48156;BME280;35568;48.104;11.782;2022-08-18T02:15:04;95053.95;;;19.36;55.64
48156;BME280;35568;48.104;11.782;2022-08-18T02:17:36;95055.37;;;19.44;55.96
48156;BME280;35568;48.104;11.782;2022-08-18T02:20:05;95048.94;;;19.19;55.90
48156;BME280;35568;48.104;11.782;2022-08-18T02:22:32;95045.61;;;19.24;55.77
48156;BME280;35568;48.104;11.782;2022-08-18T02:24:59;95047.37;;;19.17;56.01
48156;BME280;35568;48.104;11.782;2022-08-18T02:27:26;95048.16;;;19.39;55.87
48156;BME280;35568;48.104;11.782;2022-08-18T02:29:54;95046.05;;;19.22;56.22
48156;BME280;35568;48.104;11.782;2022-08-18T03:02:59;95031.37;;;19.45;54.54
48156;BME280;35568;48.104;11.782;2022-08-18T03:05:26;95030.93;;;19.21;53.94
48156;BME280;35568;48.104;11.782;2022-08-18T03:07:53;95032.61;;;19.19;53.81
48156;BME280;35568;48.104;11.782;2022-08-18T03:10:20;95038.73;;;19.34;53.76
48156;BME280;35568;48.104;11.782;2022-08-18T03:12:48;95042.80;;;19.31;53.78
48156;BME280;35568;48.104;11.782;2022-08-18T03:15:14;95045.99;;;19.31;54.20
48156;BME280;35568;48.104;11.782;2022-08-18T03:17:41;95039.90;;;18.98;53.85
48156;BME280;35568;48.104;11.782;2022-08-18T03:20:09;95031.44;;;19.36;53.70
48156;BME280;35568;48.104;11.782;2022-08-18T03:22:36;95038.26;;;19.30;53.89
48156;BME280;35568;48.104;11.782;2022-08-18T03:25:04;95037.60;;;19.30;53.88
48156;BME280;35568;48.104;11.782;2022-08-18T03:27:31;95027.49;;;19.32;53.57
48156;BME280;35568;48.104;11.782;2022-08-18T03:29:57;95019.35;;;19.23;53.59
48156;BME280;35568;48.104;11.782;2022-08-18T03:32:24;95022.64;;;19.14;53.76
48156;BME280;35568;48.104;11.782;2022-08-18T03:34:51;95026.72;;;19.11;54.07
48156;BME280;35568;48.104;11.782;2022-08-18T03:37:18;95031.15;;;18.78;54.11
48156;BME280;35568;48.104;11.782;2022-08-18T03:39:45;95028.87;;;19.08;53.71
48156;BME280;35568;48.104;11.782;2022-08-18T03:42:11;95019.30;;;19.33;53.26
48156;BME280;35568;48.104;11.782;2022-08-18T03:44:38;95019.52;;;19.10;53.37
48156;BME280;35568;48.104;11.782;2022-08-18T03:47:07;95022.18;;;19.02;53.44
48156;BME280;35568;48.104;11.782;2022-08-18T03:49:36;95023.01;;;19.47;53.13
48156;BME280;35568;48.104;11.782;2022-08-18T03:52:06;95024.71;;;19.23;53.19
48156;BME280;35568;48.104;11.782;2022-08-18T03:54:33;95025.00;;;19.48;53.14
48156;BME280;35568;48.104;11.782;2022-08-18T03:57:01;95022.42;;;19.17;52.77
48156;BME280;35568;48.104;11.782;2022-08-18T03:59:28;95017.76;;;19.38;52.48
48156;BME280;35568;48.104;11.782;2022-08-18T04:01:56;95013.96;;;19.76;51.92
48156;BME280;35568;48.104;11.782;2022-08-18T04:04:25;95006.59;;;19.77;51.57
48156;BME280;35568;48.104;11.782;2022-08-18T04:06:55;95007.70;;;19.47;51.91
48156;BME280;35568;48.104;11.782;2022-08-18T04:09:23;95004.01;;;19.33;52.15
48156;BME280;35568;48.104;11.782;2022-08-18T04:11:51;95022.74;;;19.19;52.23
48156;BME280;35568;48.104;11.782;2022-08-18T04:14:20;95029.57;;;19.36;52.81
48156;BME280;35568;48.104;11.782;2022-08-18T04:16:48;95016.77;;;19.47;52.03
48156;BME280;35568;48.104;11.782;2022-08-18T04:19:16;95010.45;;;19.68;51.48
48156;BME280;35568;48.104;11.782;2022-08-18T04:21:44;95003.03;;;19.69;51.08
48156;BME280;35568;48.104;11.782;2022-08-18T04:24:12;94998.04;;;19.47;51.11
48156;BME280;35568;48.104;11.782;2022-08-18T04:26:43;94992.44;;;19.51;51.48
48156;BME280;35568;48.104;11.782;2022-08-18T04:29:11;94984.48;;;19.43;51.58
48156;BME280;35568;48.104;11.782;2022-08-18T04:31:39;94977.88;;;19.46;51.54
48156;BME280;35568;48.104;11.782;2022-08-18T04:34:05;94985.85;;;19.49;51.55
48156;BME280;35568;48.104;11.782;2022-08-18T04:36:34;94985.46;;;19.64;51.66
48156;BME280;35568;48.104;11.782;2022-08-18T04:39:04;94977.83;;;19.44;51.23
48156;BME280;35568;48.104;11.782;2022-08-18T04:41:31;94972.13;;;19.82;50.82
48156;BME280;35568;48.104;11.782;2022-08-18T04:44:00;94973.56;;;19.81;49.83
48156;BME280;35568;48.104;11.782;2022-08-18T04:46:28;94977.35;;;19.50;50.80
48156;BME280;35568;48.104;11.782;2022-08-18T04:48:57;94983.36;;;19.70;50.97
48156;BME280;35568;48.104;11.782;2022-08-18T04:51:26;94994.21;;;19.68;50.79
48156;BME280;35568;48.104;11.782;2022-08-18T04:53:54;95002.41;;;19.84;49.84
48156;BME280;35568;48.104;11.782;2022-08-18T04:56:23;95008.11;;;19.93;50.16
48156;BME280;35568;48.104;11.782;2022-08-18T04:58:52;95005.77;;;19.93;50.29
48156;BME280;35568;48.104;11.782;2022-08-18T05:01:22;95006.84;;;20.04;50.37
48156;BME280;35568;48.104;11.782;2022-08-18T05:03:50;95006.03;;;20.12;50.52
48156;BME280;35568;48.104;11.782;2022-08-18T05:06:18;95011.72;;;19.92;50.48
48156;BME280;35568;48.104;11.782;2022-08-18T05:08:45;95025.87;;;20.25;50.55
48156;BME280;35568;48.104;11.782;2022-08-18T05:11:12;95029.79;;;20.11;49.55
48156;BME280;35568;48.104;11.782;2022-08-18T05:13:40;95032.35;;;20.42;49.74
48156;BME280;35568;48.104;11.782;2022-08-18T05:16:06;95039.98;;;20.40;50.17
48156;BME280;35568;48.104;11.782;2022-08-18T05:18:34;95047.09;;;20.20;50.15
48156;BME280;35568;48.104;11.782;2022-08-18T05:21:01;95051.51;;;20.21;50.29
48156;BME280;35568;48.104;11.782;2022-08-18T05:23:29;95053.11;;;20.02;50.82
48156;BME280;35568;48.104;11.782;2022-08-18T05:25:57;95046.56;;;20.30;50.39
48156;BME280;35568;48.104;11.782;2022-08-18T05:28:25;95039.31;;;20.37;49.81
48156;BME280;35568;48.104;11.782;2022-08-18T05:30:52;95038.80;;;20.80;49.80
48156;BME280;35568;48.104;11.782;2022-08-18T05:33:19;95038.02;;;20.61;50.20
48156;BME280;35568;48.104;11.782;2022-08-18T05:35:49;95041.56;;;19.84;49.47
48156;BME280;35568;48.104;11.782;2022-08-18T05:38:27;95041.36;;;21.21;48.41
48156;BME280;35568;48.104;11.782;2022-08-18T05:41:07;95044.12;;;21.32;48.29
48156;BME280;35568;48.104;11.782;2022-08-18T05:43:36;95052.90;;;21.56;47.93
48156;BME280;35568;48.104;11.782;2022-08-18T05:46:05;95062.68;;;21.79;47.63
48156;BME280;35568;48.104;11.782;2022-08-18T05:48:33;95068.72;;;21.65;47.43
48156;BME280;35568;48.104;11.782;2022-08-18T05:51:07;95067.53;;;21.93;47.33
48156;BME280;35568;48.104;11.782;2022-08-18T05:53:36;95068.13;;;22.00;46.88
48156;BME280;35568;48.104;11.782;2022-08-18T05:56:04;95077.89;;;22.04;46.80
48156;BME280;35568;48.104;11.782;2022-08-18T05:58:36;95084.02;;;21.44;47.13
48156;BME280;35568;48.104;11.782;2022-08-18T06:01:09;95080.60;;;21.56;47.36
48156;BME280;35568;48.104;11.782;2022-08-18T06:03:44;95070.86;;;22.28;46.88
48156;BME280;35568;48.104;11.782;2022-08-18T06:06:16;95060.79;;;22.02;46.59
48156;BME280;35568;48.104;11.782;2022-08-18T06:08:49;95053.85;;;22.03;46.48
48156;BME280;35568;48.104;11.782;2022-08-18T06:11:18;95064.29;;;22.09;46.47
48156;BME280;35568;48.104;11.782;2022-08-18T06:13:44;95075.57;;;22.25;46.43
48156;BME280;35568;48.104;11.782;2022-08-18T06:16:17;95077.78;;;22.36;46.26
48156;BME280;35568;48.104;11.782;2022-08-18T06:18:52;95080.70;;;22.22;46.08
48156;BME280;35568;48.104;11.782;2022-08-18T06:21:31;95071.46;;;22.51;46.34
48156;BME280;35568;48.104;11.782;2022-08-18T06:24:10;95070.58;;;22.34;46.31
48156;BME280;35568;48.104;11.782;2022-08-18T06:26:44;95068.15;;;22.14;46.49
48156;BME280;35568;48.104;11.782;2022-08-18T06:29:24;95071.08;;;22.28;46.40
48156;BME280;35568;48.104;11.782;2022-08-18T06:31:59;95070.36;;;22.20;46.75
48156;BME280;35568;48.104;11.782;2022-08-18T06:34:36;95071.74;;;21.95;47.02
48156;BME280;35568;48.104;11.782;2022-08-18T06:37:12;95068.78;;;22.20;46.91
48156;BME280;35568;48.104;11.782;2022-08-18T06:39:45;95058.40;;;22.46;46.35
48156;BME280;35568;48.104;11.782;2022-08-18T06:42:16;95050.06;;;22.61;45.99
48156;BME280;35568;48.104;11.782;2022-08-18T06:44:46;95041.73;;;22.46;46.19
48156;BME280;35568;48.104;11.782;2022-08-18T06:47:21;95035.14;;;22.85;45.71
48156;BME280;35568;48.104;11.782;2022-08-18T06:49:57;95040.53;;;23.00;45.35
48156;BME280;35568;48.104;11.782;2022-08-18T06:52:28;95037.23;;;22.94;45.50
48156;BME280;35568;48.104;11.782;2022-08-18T06:54:58;95045.05;;;22.64;45.80
48156;BME280;35568;48.104;11.782;2022-08-18T06:57:28;95039.68;;;22.71;45.62
48156;BME280;35568;48.104;11.782;2022-08-18T07:00:00;95030.05;;;23.00;45.55
48156;BME280;35568;48.104;11.782;2022-08-18T07:02:39;95018.17;;;23.03;45.18
48156;BME280;35568;48.104;11.782;2022-08-18T07:05:17;95004.28;;;23.58;44.89
48156;BME280;35568;48.104;11.782;2022-08-18T07:07:45;95007.23;;;23.56;44.21
48156;BME280;35568;48.104;11.782;2022-08-18T07:10:30;95015.25;;;23.57;44.00
48156;BME280;35568;48.104;11.782;2022-08-18T07:13:07;95029.78;;;23.96;43.63
48156;BME280;35568;48.104;11.782;2022-08-18T07:15:34;95030.09;;;23.96;43.60
48156;BME280;35568;48.104;11.782;2022-08-18T07:18:04;95029.44;;;23.63;43.46
48156;BME280;35568;48.104;11.782;2022-08-18T07:20:41;95033.17;;;23.74;43.56
48156;BME280;35568;48.104;11.782;2022-08-18T07:23:08;95040.36;;;23.82;43.48
48156;BME280;35568;48.104;11.782;2022-08-18T07:25:51;95045.68;;;23.89;43.25
48156;BME280;35568;48.104;11.782;2022-08-18T07:28:28;95039.32;;;24.32;42.35
48156;BME280;35568;48.104;11.782;2022-08-18T07:31:10;95029.29;;;24.59;41.48
48156;BME280;35568;48.104;11.782;2022-08-18T07:33:39;95039.97;;;24.63;41.53
48156;BME280;35568;48.104;11.782;2022-08-18T07:36:08;95055.81;;;24.61;41.41
48156;BME280;35568;48.104;11.782;2022-08-18T07:38:40;95056.95;;;24.80;41.36
48156;BME280;35568;48.104;11.782;2022-08-18T07:41:14;95045.47;;;24.95;41.34
48156;BME280;35568;48.104;11.782;2022-08-18T07:43:52;95040.81;;;24.74;41.40
48156;BME280;35568;48.104;11.782;2022-08-18T07:46:27;95033.21;;;25.40;40.35
48156;BME280;35568;48.104;11.782;2022-08-18T07:48:57;95025.27;;;25.79;40.04
48156;BME280;35568;48.104;11.782;2022-08-18T07:51:31;95014.97;;;25.54;39.74
48156;BME280;35568;48.104;11.782;2022-08-18T07:54:09;95015.33;;;25.45;40.37
48156;BME280;35568;48.104;11.782;2022-08-18T07:56:43;95013.75;;;25.73;39.52
48156;BME280;35568;48.104;11.782;2022-08-18T07:59:17;95015.47;;;26.24;38.13
48156;BME280;35568;48.104;11.782;2022-08-18T08:01:58;95017.80;;;26.78;37.59
48156;BME280;35568;48.104;11.782;2022-08-18T08:04:37;95024.67;;;26.90;37.11
48156;BME280;35568;48.104;11.782;2022-08-18T08:07:09;95034.02;;;26.71;37.24
48156;BME280;35568;48.104;11.782;2022-08-18T08:09:43;95032.66;;;27.05;37.19
48156;BME280;35568;48.104;11.782;2022-08-18T08:12:29;95029.21;;;26.72;37.64
48156;BME280;35568;48.104;11.782;2022-08-18T08:15:05;95016.58;;;27.28;36.98
48156;BME280;35568;48.104;11.782;2022-08-18T08:17:44;95014.82;;;27.96;35.69
48156;BME280;35568;48.104;11.782;2022-08-18T08:20:18;95012.01;;;28.12;35.04
48156;BME280;35568;48.104;11.782;2022-08-18T08:23:10;95004.93;;;28.21;35.11
48156;BME280;35568;48.104;11.782;2022-08-18T08:25:47;94993.80;;;28.18;35.43
48156;BME280;35568;48.104;11.782;2022-08-18T08:28:23;94997.64;;;27.92;35.79
48156;BME280;35568;48.104;11.782;2022-08-18T08:31:02;94997.13;;;27.63;35.64
48156;BME280;35568;48.104;11.782;2022-08-18T08:33:36;95002.27;;;27.86;36.03
48156;BME280;35568;48.104;11.782;2022-08-18T08:36:09;95002.15;;;27.69;36.31
48156;BME280;35568;48.104;11.782;2022-08-18T08:38:43;94996.89;;;27.81;35.49
48156;BME280;35568;48.104;11.782;2022-08-18T08:41:17;94985.32;;;27.59;35.64
48156;BME280;35568;48.104;11.782;2022-08-18T08:43:51;94982.84;;;27.37;36.12
48156;BME280;35568;48.104;11.782;2022-08-18T08:46:23;94985.88;;;27.55;36.46
48156;BME280;35568;48.104;11.782;2022-08-18T08:48:57;94992.93;;;27.99;36.15
48156;BME280;35568;48.104;11.782;2022-08-18T08:51:32;94997.15;;;27.76;36.00
48156;BME280;35568;48.104;11.782;2022-08-18T08:54:05;95002.32;;;28.00;35.49
48156;BME280;35568;48.104;11.782;2022-08-18T08:56:40;95000.56;;;28.06;34.97
48156;BME280;35568;48.104;11.782;2022-08-18T08:59:12;95001.78;;;28.76;34.00
48156;BME280;35568;48.104;11.782;2022-08-18T09:01:44;94986.81;;;29.78;32.84
48156;BME280;35568;48.104;11.782;2022-08-18T09:04:23;94976.40;;;30.42;32.38
48156;BME280;35568;48.104;11.782;2022-08-18T09:07:03;94976.33;;;30.36;31.31
48156;BME280;35568;48.104;11.782;2022-08-18T09:09:51;94976.33;;;30.13;31.22
48156;BME280;35568;48.104;11.782;2022-08-18T09:12:32;94986.75;;;29.13;32.05
48156;BME280;35568;48.104;11.782;2022-08-18T09:15:15;94983.96;;;29.98;30.97
48156;BME280;35568;48.104;11.782;2022-08-18T09:19:12;94981.47;;;31.17;29.89
48156;BME280;35568;48.104;11.782;2022-08-18T09:21:45;94972.47;;;30.77;30.27
48156;BME280;35568;48.104;11.782;2022-08-18T09:24:21;94971.71;;;30.75;30.06
48156;BME280;35568;48.104;11.782;2022-08-18T09:26:52;94977.12;;;30.55;29.46
48156;BME280;35568;48.104;11.782;2022-08-18T09:29:50;94975.66;;;30.79;29.75
48156;BME280;35568;48.104;11.782;2022-08-18T09:32:49;94976.66;;;31.15;29.10
48156;BME280;35568;48.104;11.782;2022-08-18T09:35:45;94979.69;;;32.20;27.79
48156;BME280;35568;48.104;11.782;2022-08-18T09:38:20;94976.29;;;32.75;27.21
48156;BME280;35568;48.104;11.782;2022-08-18T09:40:51;94962.83;;;33.04;26.79
48156;BME280;35568;48.104;11.782;2022-08-18T09:43:30;94954.72;;;33.13;26.01
48156;BME280;35568;48.104;11.782;2022-08-18T09:46:00;94945.49;;;31.97;26.93
48156;BME280;35568;48.104;11.782;2022-08-18T09:48:31;94948.85;;;33.39;25.93
48156;BME280;35568;48.104;11.782;2022-08-18T09:51:59;94960.39;;;32.95;26.11
48156;BME280;35568;48.104;11.782;2022-08-18T09:54:28;94962.42;;;32.84;26.00
48156;BME280;35568;48.104;11.782;2022-08-18T09:57:21;94957.20;;;32.66;26.02
48156;BME280;35568;48.104;11.782;2022-08-18T09:59:58;94963.11;;;33.56;25.66
48156;BME280;35568;48.104;11.782;2022-08-18T10:03:41;94961.21;;;34.19;24.82
48156;BME280;35568;48.104;11.782;2022-08-18T10:06:18;94958.56;;;34.05;25.16
48156;BME280;35568;48.104;11.782;2022-08-18T10:10:59;94960.23;;;34.66;24.64
48156;BME280;35568;48.104;11.782;2022-08-18T10:13:38;94957.12;;;34.42;24.45
48156;BME280;35568;48.104;11.782;2022-08-18T10:16:14;94962.52;;;34.16;24.56
48156;BME280;35568;48.104;11.782;2022-08-18T10:18:59;94968.09;;;33.97;25.14
48156;BME280;35568;48.104;11.782;2022-08-18T10:22:01;94983.53;;;34.04;24.94
48156;BME280;35568;48.104;11.782;2022-08-18T10:24:33;94982.72;;;34.64;24.65
48156;BME280;35568;48.104;11.782;2022-08-18T10:27:03;94978.00;;;34.52;24.41
48156;BME280;35568;48.104;11.782;2022-08-18T10:30:04;94986.36;;;34.31;24.39
48156;BME280;35568;48.104;11.782;2022-08-18T10:32:37;94994.12;;;34.37;24.64
48156;BME280;35568;48.104;11.782;2022-08-18T10:38:22;94980.99;;;34.41;24.55
48156;BME280;35568;48.104;11.782;2022-08-18T10:40:55;94981.38;;;34.93;24.01
48156;BME280;35568;48.104;11.782;2022-08-18T10:43:31;94979.99;;;34.60;24.16
48156;BME280;35568;48.104;11.782;2022-08-18T10:46:01;94961.96;;;34.77;24.02
48156;BME280;35568;48.104;11.782;2022-08-18T10:48:30;94945.31;;;35.26;22.99
48156;BME280;35568;48.104;11.782;2022-08-18T10:51:02;94946.43;;;34.76;23.52
48156;BME280;35568;48.104;11.782;2022-08-18T10:53:36;94951.11;;;33.97;24.18
48156;BME280;35568;48.104;11.782;2022-08-18T10:56:10;94944.67;;;34.58;24.03
48156;BME280;35568;48.104;11.782;2022-08-18T10:58:56;94941.17;;;34.89;23.71
48156;BME280;35568;48.104;11.782;2022-08-18T11:01:39;94942.48;;;34.82;23.77
48156;BME280;35568;48.104;11.782;2022-08-18T11:04:25;94948.57;;;34.64;23.75
48156;BME280;35568;48.104;11.782;2022-08-18T11:07:02;94945.73;;;34.56;23.63
48156;BME280;35568;48.104;11.782;2022-08-18T11:09:31;94940.84;;;34.28;23.70
48156;BME280;35568;48.104;11.782;2022-08-18T11:11:59;94942.12;;;34.70;24.12
48156;BME280;35568;48.104;11.782;2022-08-18T11:14:42;94946.71;;;34.91;23.56
48156;BME280;35568;48.104;11.782;2022-08-18T11:17:20;94946.97;;;35.55;22.82
48156;BME280;35568;48.104;11.782;2022-08-18T11:19:50;94940.19;;;35.34;22.70
48156;BME280;35568;48.104;11.782;2022-08-18T11:22:21;94930.67;;;35.27;22.91
48156;BME280;35568;48.104;11.782;2022-08-18T11:24:48;94920.95;;;35.33;22.73
48156;BME280;35568;48.104;11.782;2022-08-18T11:27:18;94915.76;;;34.87;23.15
48156;BME280;35568;48.104;11.782;2022-08-18T11:29:46;94905.16;;;34.99;23.54
48156;BME280;35568;48.104;11.782;2022-08-18T11:32:19;94897.13;;;35.33;23.05
48156;BME280;35568;48.104;11.782;2022-08-18T11:34:49;94897.22;;;35.46;22.81
48156;BME280;35568;48.104;11.782;2022-08-18T11:37:23;94889.31;;;35.70;22.38
48156;BME280;35568;48.104;11.782;2022-08-18T11:39:54;94883.26;;;35.32;22.63
48156;BME280;35568;48.104;11.782;2022-08-18T11:42:27;94875.06;;;34.60;23.42
48156;BME280;35568;48.104;11.782;2022-08-18T11:45:03;94878.96;;;34.92;23.50
48156;BME280;35568;48.104;11.782;2022-08-18T11:47:31;94870.33;;;35.16;23.02
48156;BME280;35568;48.104;11.782;2022-08-18T11:50:07;94861.67;;;34.17;23.48
48156;BME280;35568;48.104;11.782;2022-08-18T11:52:47;94839.79;;;34.25;24.05
48156;BME280;35568;48.104;11.782;2022-08-18T11:55:19;94826.74;;;34.30;23.78
48156;BME280;35568;48.104;11.782;2022-08-18T11:57:51;94818.74;;;34.45;23.99
48156;BME280;35568;48.104;11.782;2022-08-18T12:00:37;94811.72;;;34.14;24.31
48156;BME280;35568;48.104;11.782;2022-08-18T12:03:08;94799.89;;;34.73;23.70
48156;BME280;35568;48.104;11.782;2022-08-18T12:05:45;94793.75;;;35.33;23.15
48156;BME280;35568;48.104;11.782;2022-08-18T12:08:18;94788.12;;;35.86;22.74
48156;BME280;35568;48.104;11.782;2022-08-18T12:10:45;94800.08;;;35.63;23.04
48156;BME280;35568;48.104;11.782;2022-08-18T12:13:21;94818.33;;;35.32;22.86
48156;BME280;35568;48.104;11.782;2022-08-18T12:16:07;94836.81;;;34.76;23.44
48156;BME280;35568;48.104;11.782;2022-08-18T12:18:34;94847.62;;;34.00;23.95
48156;BME280;35568;48.104;11.782;2022-08-18T12:21:01;94846.85;;;34.35;24.41
48156;BME280;35568;48.104;11.782;2022-08-18T12:23:28;94841.04;;;34.60;24.53
48156;BME280;35568;48.104;11.782;2022-08-18T12:25:55;94830.17;;;35.16;23.84
48156;BME280;35568;48.104;11.782;2022-08-18T12:28:22;94826.36;;;35.57;23.50
48156;BME280;35568;48.104;11.782;2022-08-18T12:30:48;94820.75;;;35.05;23.53
48156;BME280;35568;48.104;11.782;2022-08-18T12:33:15;94815.20;;;34.36;24.26
48156;BME280;35568;48.104;11.782;2022-08-18T12:35:42;94808.76;;;34.15;24.39
48156;BME280;35568;48.104;11.782;2022-08-18T12:38:09;94809.23;;;34.30;24.14
48156;BME280;35568;48.104;11.782;2022-08-18T12:40:36;94822.60;;;34.30;24.66
48156;BME280;35568;48.104;11.782;2022-08-18T12:43:03;94824.19;;;34.11;24.43
48156;BME280;35568;48.104;11.782;2022-08-18T12:45:30;94825.18;;;34.24;24.32
48156;BME280;35568;48.104;11.782;2022-08-18T12:47:57;94828.52;;;33.76;24.59
48156;BME280;35568;48.104;11.782;2022-08-18T12:50:24;94829.03;;;33.28;25.10
48156;BME280;35568;48.104;11.782;2022-08-18T12:52:50;94824.85;;;33.15;25.78
48156;BME280;35568;48.104;11.782;2022-08-18T12:55:17;94824.44;;;33.26;25.58
48156;BME280;35568;48.104;11.782;2022-08-18T12:57:44;94828.89;;;33.13;25.87
48156;BME280;35568;48.104;11.782;2022-08-18T13:00:12;94831.30;;;33.50;25.44
48156;BME280;35568;48.104;11.782;2022-08-18T13:02:39;94827.09;;;33.34;25.58
48156;BME280;35568;48.104;11.782;2022-08-18T13:05:07;94825.16;;;33.47;25.22
48156;BME280;35568;48.104;11.782;2022-08-18T13:07:33;94819.65;;;33.53;25.21
48156;BME280;35568;48.104;11.782;2022-08-18T13:10:00;94812.81;;;33.13;25.76
48156;BME280;35568;48.104;11.782;2022-08-18T13:12:27;94799.17;;;32.75;26.14
48156;BME280;35568;48.104;11.782;2022-08-18T13:14:55;94788.82;;;32.13;26.70
48156;BME280;35568;48.104;11.782;2022-08-18T13:17:22;94779.01;;;31.97;26.88
48156;BME280;35568;48.104;11.782;2022-08-18T13:19:49;94770.86;;;31.84;27.27
48156;BME280;35568;48.104;11.782;2022-08-18T13:22:16;94773.38;;;31.57;27.60
48156;BME280;35568;48.104;11.782;2022-08-18T13:24:43;94775.82;;;31.32;27.84
48156;BME280;35568;48.104;11.782;2022-08-18T13:27:10;94774.08;;;31.71;28.08
48156;BME280;35568;48.104;11.782;2022-08-18T13:29:37;94777.63;;;31.53;28.01
48156;BME280;35568;48.104;11.782;2022-08-18T13:32:04;94781.67;;;31.45;28.20
48156;BME280;35568;48.104;11.782;2022-08-18T13:34:31;94789.21;;;31.94;28.23
48156;BME280;35568;48.104;11.782;2022-08-18T13:36:57;94796.42;;;31.42;28.11
48156;BME280;35568;48.104;11.782;2022-08-18T13:39:24;94804.22;;;31.37;28.27
48156;BME280;35568;48.104;11.782;2022-08-18T13:41:53;94809.08;;;31.33;28.54
48156;BME280;35568;48.104;11.782;2022-08-18T13:44:21;94813.99;;;31.14;28.67
48156;BME280;35568;48.104;11.782;2022-08-18T13:46:49;94813.47;;;30.99;28.92
48156;BME280;35568;48.104;11.782;2022-08-18T13:49:19;94809.20;;;31.67;28.84
48156;BME280;35568;48.104;11.782;2022-08-18T13:51:47;94804.12;;;31.22;28.97